AAL421 KJFK-KJFK
Flight info
| Callsign | AAL421 |
|---|---|
| Flight time | 0h 6m |
| Altitude | 21000 |
| Route | |
| Aircraft | B38M/M-SDE1FGHILORVWXY/HB1 |
Departure
| Time | 2026-05-05 02:30 |
|---|---|
| Airport | John F. Kennedy International Airport (KJFK) |
Arrival
| Time | 2026-05-05 02:36 |
|---|---|
| Airport | John F. Kennedy International Airport (KJFK) |
| Time | Latitude | Longitude | Altitude | Speed | Heading |
|---|---|---|---|---|---|
| 2026-05-05 02:30 | 40.79779 | -73.44909 | 6012 ft | 263 kts | 316° |
| 2026-05-05 02:30 | 40.80900 | -73.46728 | 5499 ft | 252 kts | 290° |
| 2026-05-05 02:30 | 40.81244 | -73.48937 | 5034 ft | 244 kts | 269° |
| 2026-05-05 02:30 | 40.81124 | -73.51148 | 4580 ft | 240 kts | 260° |
| 2026-05-05 02:31 | 40.80873 | -73.53311 | 4123 ft | 237 kts | 259° |
| 2026-05-05 02:31 | 40.80627 | -73.55450 | 3663 ft | 235 kts | 259° |
| 2026-05-05 02:31 | 40.80389 | -73.57566 | 3211 ft | 232 kts | 258° |
| 2026-05-05 02:31 | 40.80155 | -73.59668 | 2739 ft | 230 kts | 258° |
| 2026-05-05 02:32 | 40.79908 | -73.61743 | 2288 ft | 227 kts | 253° |
| 2026-05-05 02:32 | 40.79185 | -73.63507 | 2047 ft | 212 kts | 227° |
| 2026-05-05 02:32 | 40.78117 | -73.64710 | 2050 ft | 193 kts | 215° |
| 2026-05-05 02:32 | 40.77036 | -73.65627 | 2088 ft | 178 kts | 213° |
| 2026-05-05 02:33 | 40.76023 | -73.66446 | 2049 ft | 171 kts | 212° |
| 2026-05-05 02:33 | 40.74999 | -73.67256 | 2016 ft | 170 kts | 212° |
| 2026-05-05 02:33 | 40.73977 | -73.68064 | 2017 ft | 172 kts | 212° |
| 2026-05-05 02:33 | 40.72942 | -73.68878 | 1859 ft | 173 kts | 211° |
| 2026-05-05 02:34 | 40.71915 | -73.69686 | 1649 ft | 170 kts | 211° |
| 2026-05-05 02:34 | 40.70903 | -73.70481 | 1453 ft | 171 kts | 211° |
| 2026-05-05 02:34 | 40.69891 | -73.71276 | 1254 ft | 172 kts | 210° |
| 2026-05-05 02:34 | 40.68877 | -73.72072 | 1026 ft | 160 kts | 210° |
| 2026-05-05 02:35 | 40.67980 | -73.72778 | 848 ft | 142 kts | 210° |
| 2026-05-05 02:35 | 40.67178 | -73.73411 | 677 ft | 136 kts | 209° |
| 2026-05-05 02:35 | 40.66359 | -73.74058 | 462 ft | 136 kts | 208° |
| 2026-05-05 02:35 | 40.65568 | -73.74673 | 292 ft | 129 kts | 209° |
| 2026-05-05 02:36 | 40.64792 | -73.75287 | 127 ft | 134 kts | 207° |
| 2026-05-05 02:36 | 40.64010 | -73.75886 | 21 ft | 117 kts | 210° |
| 2026-05-05 02:36 | 40.63521 | -73.76262 | 24 ft | 47 kts | 212° |
| 2026-05-05 02:36 | 40.63352 | -73.76426 | 21 ft | 30 kts | 221° |
| 2026-05-05 02:37 | 40.63242 | -73.76651 | 18 ft | 27 kts | 261° |
| 2026-05-05 02:37 | 40.63301 | -73.76858 | 18 ft | 23 kts | 301° |
| 2026-05-05 02:37 | 40.63368 | -73.77006 | 18 ft | 8 kts | 302° |
| 2026-05-05 02:37 | 40.63374 | -73.77020 | 18 ft | 0 kts | 302° |
| 2026-05-05 02:38 | 40.63375 | -73.77021 | 18 ft | 0 kts | 302° |
| 2026-05-05 02:38 | 40.63378 | -73.77028 | 18 ft | 2 kts | 302° |
| 2026-05-05 02:39 | 40.63413 | -73.77105 | 18 ft | 16 kts | 301° |
| 2026-05-05 02:39 | 40.63481 | -73.77254 | 18 ft | 21 kts | 301° |
| 2026-05-05 02:39 | 40.63558 | -73.77427 | 21 ft | 22 kts | 300° |
| 2026-05-05 02:39 | 40.63637 | -73.77582 | 19 ft | 15 kts | 331° |
| 2026-05-05 02:40 | 40.63730 | -73.77534 | 18 ft | 16 kts | 31° |
| 2026-05-05 02:40 | 40.63838 | -73.77449 | 19 ft | 20 kts | 30° |
| 2026-05-05 02:40 | 40.63964 | -73.77351 | 19 ft | 22 kts | 31° |
| 2026-05-05 02:40 | 40.64100 | -73.77242 | 19 ft | 24 kts | 31° |
| 2026-05-05 02:41 | 40.64249 | -73.77129 | 19 ft | 26 kts | 31° |
| 2026-05-05 02:41 | 40.64393 | -73.77014 | 18 ft | 19 kts | 28° |
| 2026-05-05 02:41 | 40.64528 | -73.76986 | 18 ft | 21 kts | 359° |
| 2026-05-05 02:41 | 40.64677 | -73.77004 | 18 ft | 22 kts | 343° |
| 2026-05-05 02:42 | 40.64795 | -73.77141 | 19 ft | 24 kts | 303° |
| 2026-05-05 02:42 | 40.64881 | -73.77338 | 19 ft | 26 kts | 303° |
| 2026-05-05 02:42 | 40.64979 | -73.77547 | 18 ft | 28 kts | 300° |
| 2026-05-05 02:42 | 40.65079 | -73.77771 | 20 ft | 28 kts | 301° |
| 2026-05-05 02:43 | 40.65169 | -73.77972 | 19 ft | 20 kts | 301° |
| 2026-05-05 02:43 | 40.65244 | -73.78131 | 19 ft | 21 kts | 299° |
| 2026-05-05 02:43 | 40.65322 | -73.78304 | 19 ft | 23 kts | 302° |
| 2026-05-05 02:43 | 40.65332 | -73.78527 | 19 ft | 30 kts | 245° |
| 2026-05-05 02:44 | 40.65228 | -73.78781 | 18 ft | 32 kts | 249° |
| 2026-05-05 02:44 | 40.65149 | -73.78907 | 18 ft | 17 kts | 188° |
| 2026-05-05 02:44 | 40.65033 | -73.78958 | 18 ft | 20 kts | 228° |
| 2026-05-05 02:44 | 40.64958 | -73.79116 | 19 ft | 21 kts | 240° |
| 2026-05-05 02:45 | 40.64895 | -73.79263 | 18 ft | 11 kts | 240° |
| 2026-05-05 02:45 | 40.64849 | -73.79312 | 18 ft | 7 kts | 163° |
| 2026-05-05 02:45 | 40.64816 | -73.79288 | 19 ft | 6 kts | 149° |
| 2026-05-05 02:45 | 40.64808 | -73.79282 | 19 ft | 0 kts | 150° |